Time;durP1;ratioP1;P1;durP2;ratioP2;P2;SDS_P1;SDS_P2;PMS_P1;PMS_P2;Temp;Humidity;BMP_temperature;BMP_pressure;BME280_temperature;BME280_humidity;BME280_pressure;Samples;Min_cycle;Max_cycle;Signal;HPM_P1;HPM_P2
2022/04/13 00:01:49;;;;;;;98.13;46.03;;;;;;;;;;5114435;27;20030;-71
2022/04/13 00:04:15;;;;;;;102.40;48.55;;;;;;;;;;5119140;27;20192;-75
2022/04/13 00:06:41;;;;;;;79.88;41.75;;;;;;;;;;5114649;27;20019;-74
2022/04/13 00:09:07;;;;;;;66.78;32.13;;;;;;;;;;5122273;27;20365;-71
2022/04/13 00:11:32;;;;;;;29.67;16.10;;;;;;;;;;5093116;27;20019;-72
2022/04/13 00:13:58;;;;;;;24.48;11.80;;;;;;;;;;5121908;27;20027;-70
2022/04/13 00:16:23;;;;;;;16.88;8.90;;;;;;;;;;5121733;27;20023;-69
2022/04/13 00:18:48;;;;;;;52.00;27.30;;;;;;;;;;5122583;27;20081;-71
2022/04/13 00:21:14;;;;;;;55.40;27.83;;;;;;;;;;5114346;27;20026;-71
2022/04/13 00:23:39;;;;;;;57.33;26.42;;;;;;;;;;5112425;27;20030;-73
2022/04/13 00:26:04;;;;;;;52.58;27.90;;;;;;;;;;5116250;27;20409;-71
2022/04/13 00:28:30;;;;;;;51.88;28.65;;;;;;;;;;5113264;27;20038;-72
2022/04/13 00:30:55;;;;;;;43.95;22.88;;;;;;;;;;5120099;27;20676;-74
2022/04/13 00:33:20;;;;;;;35.03;18.98;;;;;;;;;;5121965;27;20460;-73
2022/04/13 00:35:45;;;;;;;30.58;16.10;;;;;;;;;;5117802;27;20019;-73
2022/04/13 00:38:11;;;;;;;26.35;14.45;;;;;;;;;;5115213;27;20689;-73
2022/04/13 00:40:38;;;;;;;26.58;15.60;;;;;;;;;;5120706;27;20433;-73
2022/04/13 00:43:04;;;;;;;29.95;16.25;;;;;;;;;;5121514;27;20027;-72
2022/04/13 00:45:29;;;;;;;24.65;13.93;;;;;;;;;;5112136;27;20026;-74
2022/04/13 00:47:54;;;;;;;26.13;13.68;;;;;;;;;;5102117;27;20027;-73
2022/04/13 00:50:20;;;;;;;26.00;15.48;;;;;;;;;;5121666;27;20031;-72
2022/04/13 00:52:47;;;;;;;42.63;23.25;;;;;;;;;;5121926;27;20050;-72
2022/04/13 00:55:13;;;;;;;37.05;21.10;;;;;;;;;;5115871;27;20450;-72
2022/04/13 00:57:40;;;;;;;36.67;18.17;;;;;;;;;;5096260;27;20399;-71
2022/04/13 01:00:06;;;;;;;36.55;19.00;;;;;;;;;;5121505;27;20027;-72
2022/04/13 01:02:32;;;;;;;31.35;16.65;;;;;;;;;;5120456;27;20031;-72
2022/04/13 01:05:02;;;;;;;30.42;17.45;;;;;;;;;;5122037;27;20033;-72
2022/04/13 01:07:29;;;;;;;31.08;17.00;;;;;;;;;;5110942;27;20054;-71
2022/04/13 01:09:54;;;;;;;30.58;16.63;;;;;;;;;;5111067;27;20072;-71
2022/04/13 01:12:20;;;;;;;27.75;15.27;;;;;;;;;;5118128;27;20011;-73
2022/04/13 01:14:45;;;;;;;20.42;11.77;;;;;;;;;;5109447;27;20366;-73
2022/04/13 01:17:10;;;;;;;26.08;15.43;;;;;;;;;;5116888;27;20105;-71
2022/04/13 01:19:36;;;;;;;27.95;15.45;;;;;;;;;;5121391;27;20456;-74
2022/04/13 01:22:17;;;;;;;22.52;12.93;;;;;;;;;;5112231;27;20034;-71
2022/04/13 01:24:43;;;;;;;20.35;11.80;;;;;;;;;;5120458;27;20064;-74
2022/04/13 01:27:09;;;;;;;14.55;9.07;;;;;;;;;;5121649;27;20019;-70
2022/04/13 01:29:34;;;;;;;14.98;9.15;;;;;;;;;;5120949;27;20053;-70
2022/04/13 01:31:59;;;;;;;14.77;9.18;;;;;;;;;;5121276;27;20052;-70
2022/04/13 01:34:25;;;;;;;22.08;12.57;;;;;;;;;;5111765;27;20030;-70
2022/04/13 01:36:50;;;;;;;27.83;15.63;;;;;;;;;;5106906;27;20080;-70
2022/04/13 01:39:15;;;;;;;26.85;15.80;;;;;;;;;;5110128;27;20596;-71
2022/04/13 01:41:41;;;;;;;27.02;12.30;;;;;;;;;;5117953;27;20073;-74
2022/04/13 01:44:06;;;;;;;26.50;15.32;;;;;;;;;;5121230;27;20027;-71
2022/04/13 01:46:31;;;;;;;20.27;12.27;;;;;;;;;;5120359;27;20094;-71
2022/04/13 01:48:57;;;;;;;19.65;11.02;;;;;;;;;;5121110;27;20051;-74
2022/04/13 01:51:22;;;;;;;18.02;11.35;;;;;;;;;;5120053;27;20031;-71
2022/04/13 01:53:48;;;;;;;18.08;12.25;;;;;;;;;;5120371;27;20138;-74
2022/04/13 01:56:14;;;;;;;23.65;14.50;;;;;;;;;;5116719;27;20019;-71
2022/04/13 01:58:39;;;;;;;19.27;12.52;;;;;;;;;;5112683;27;20360;-71
2022/04/13 02:01:06;;;;;;;20.98;11.90;;;;;;;;;;5119894;27;20045;-74
2022/04/13 02:03:32;;;;;;;20.35;11.52;;;;;;;;;;5119567;27;20118;-73
2022/04/13 02:05:57;;;;;;;19.98;10.73;;;;;;;;;;5120762;27;20404;-71
2022/04/13 02:08:23;;;;;;;20.55;12.00;;;;;;;;;;5120655;27;20110;-71
2022/04/13 02:10:49;;;;;;;17.65;10.85;;;;;;;;;;5120420;27;20118;-70
2022/04/13 02:13:14;;;;;;;23.88;12.55;;;;;;;;;;5120283;27;20031;-71
2022/04/13 02:15:40;;;;;;;21.67;11.57;;;;;;;;;;5109902;28;20046;-71
2022/04/13 02:18:06;;;;;;;23.25;10.93;;;;;;;;;;5107887;28;20027;-72
2022/04/13 02:20:31;;;;;;;19.23;11.00;;;;;;;;;;5106483;28;20026;-72
2022/04/13 02:22:56;;;;;;;25.08;13.65;;;;;;;;;;5107886;28;20038;-72
2022/04/13 02:25:22;;;;;;;18.50;11.13;;;;;;;;;;5114512;28;20050;-75
2022/04/13 02:27:47;;;;;;;40.08;18.30;;;;;;;;;;5119625;28;20061;-72
2022/04/13 02:30:13;;;;;;;68.60;33.25;;;;;;;;;;5101726;28;20353;-71
2022/04/13 02:32:38;;;;;;;89.70;42.55;;;;;;;;;;5119482;27;20027;-72
2022/04/13 02:35:04;;;;;;;127.90;54.83;;;;;;;;;;5110938;28;20027;-75
2022/04/13 02:37:29;;;;;;;237.80;103.45;;;;;;;;;;5107718;28;20034;-71
2022/04/13 02:39:54;;;;;;;237.60;109.00;;;;;;;;;;5108760;28;20418;-75
2022/04/13 02:42:20;;;;;;;229.38;98.43;;;;;;;;;;5110947;28;20135;-75
2022/04/13 02:44:45;;;;;;;209.25;89.15;;;;;;;;;;5119962;28;20035;-73
2022/04/13 02:47:11;;;;;;;184.02;81.65;;;;;;;;;;5119774;28;20019;-74
2022/04/13 02:49:36;;;;;;;187.65;86.25;;;;;;;;;;5119712;28;20038;-72
2022/04/13 02:52:02;;;;;;;188.15;79.15;;;;;;;;;;5120540;27;20342;-72
2022/04/13 02:54:27;;;;;;;181.20;81.15;;;;;;;;;;5124610;27;20115;-72
2022/04/13 02:56:52;;;;;;;178.57;77.63;;;;;;;;;;5117368;27;20102;-73
2022/04/13 02:59:18;;;;;;;186.88;79.65;;;;;;;;;;5118930;27;20038;-75
2022/04/13 03:01:43;;;;;;;163.52;74.15;;;;;;;;;;5124500;27;20038;-72
2022/04/13 03:04:09;;;;;;;157.73;69.05;;;;;;;;;;5122678;27;20027;-73
2022/04/13 03:06:34;;;;;;;147.98;64.60;;;;;;;;;;5106074;27;20030;-72
2022/04/13 03:08:59;;;;;;;126.38;54.78;;;;;;;;;;5123406;27;20031;-74
2022/04/13 03:11:25;;;;;;;105.95;44.42;;;;;;;;;;5123511;27;20462;-72
2022/04/13 03:13:50;;;;;;;61.50;27.77;;;;;;;;;;5123159;27;20091;-71
2022/04/13 03:16:15;;;;;;;43.03;20.50;;;;;;;;;;5123868;27;20346;-72
2022/04/13 03:18:41;;;;;;;51.53;22.40;;;;;;;;;;5124251;27;20359;-72
2022/04/13 03:21:06;;;;;;;136.45;59.30;;;;;;;;;;5123949;27;20357;-71
2022/04/13 03:23:31;;;;;;;133.43;60.35;;;;;;;;;;5122941;27;20668;-73
2022/04/13 03:25:57;;;;;;;75.75;34.75;;;;;;;;;;5116495;27;20030;-72
2022/04/13 03:28:23;;;;;;;80.57;37.60;;;;;;;;;;5117323;27;20022;-72
2022/04/13 03:30:49;;;;;;;50.65;23.98;;;;;;;;;;5113930;27;20369;-72
2022/04/13 03:33:15;;;;;;;38.35;17.65;;;;;;;;;;5123666;27;20114;-72
2022/04/13 03:35:40;;;;;;;39.83;19.45;;;;;;;;;;5123853;27;20051;-72
2022/04/13 03:38:08;;;;;;;81.05;34.80;;;;;;;;;;5123132;27;20019;-70
2022/04/13 03:40:34;;;;;;;74.47;30.52;;;;;;;;;;5122040;27;20079;-74
2022/04/13 03:42:59;;;;;;;83.15;38.08;;;;;;;;;;5114973;27;20130;-72
2022/04/13 03:45:25;;;;;;;85.78;40.10;;;;;;;;;;5099504;27;20530;-71
2022/04/13 03:47:50;;;;;;;74.50;32.30;;;;;;;;;;5113858;27;20076;-71
2022/04/13 03:50:17;;;;;;;77.38;35.08;;;;;;;;;;5109819;27;20362;-71
2022/04/13 03:52:42;;;;;;;66.93;31.08;;;;;;;;;;5110097;27;20047;-71
2022/04/13 03:55:08;;;;;;;41.15;18.95;;;;;;;;;;5110387;27;20478;-73
2022/04/13 03:57:34;;;;;;;40.47;16.75;;;;;;;;;;5109957;27;20039;-72
2022/04/13 03:59:59;;;;;;;42.08;17.63;;;;;;;;;;5110268;27;20192;-71
2022/04/13 04:02:25;;;;;;;38.17;15.52;;;;;;;;;;5111148;27;20027;-71
2022/04/13 04:04:50;;;;;;;41.00;17.75;;;;;;;;;;5113997;27;20031;-70
2022/04/13 04:07:16;;;;;;;44.00;20.98;;;;;;;;;;5123506;27;20023;-70
2022/04/13 04:09:42;;;;;;;58.88;26.20;;;;;;;;;;5119623;27;20020;-72
2022/04/13 04:12:07;;;;;;;135.82;54.95;;;;;;;;;;5120849;27;20034;-70
2022/04/13 04:14:33;;;;;;;89.30;36.75;;;;;;;;;;5123456;27;20023;-74
2022/04/13 04:16:58;;;;;;;62.50;26.50;;;;;;;;;;5096157;27;20034;-70
2022/04/13 04:19:23;;;;;;;58.88;30.27;;;;;;;;;;5110679;27;20031;-70
2022/04/13 04:21:48;;;;;;;80.93;41.15;;;;;;;;;;5121074;27;20031;-71
2022/04/13 04:24:14;;;;;;;79.50;37.22;;;;;;;;;;5121877;27;20031;-69
2022/04/13 04:26:39;;;;;;;88.72;45.05;;;;;;;;;;5115939;27;20133;-70
2022/04/13 04:29:05;;;;;;;92.70;47.15;;;;;;;;;;5115193;27;20019;-69
2022/04/13 04:34:14;;;;;;;112.57;55.47;;;;;;;;;;5111006;27;20030;-70
2022/04/13 04:36:39;;;;;;;108.75;55.30;;;;;;;;;;5109794;27;20023;-72
2022/04/13 04:39:05;;;;;;;98.05;50.58;;;;;;;;;;5108385;27;20031;-75
2022/04/13 04:41:30;;;;;;;105.40;49.17;;;;;;;;;;5115889;27;20023;-70
2022/04/13 04:43:55;;;;;;;97.65;44.15;;;;;;;;;;5119467;27;20023;-69
2022/04/13 04:46:21;;;;;;;155.50;70.43;;;;;;;;;;5119240;27;20035;-70
2022/04/13 04:48:46;;;;;;;165.52;72.82;;;;;;;;;;5119984;27;20026;-68
2022/04/13 04:51:12;;;;;;;94.10;43.63;;;;;;;;;;5116897;27;20035;-74
2022/04/13 04:53:38;;;;;;;96.72;49.80;;;;;;;;;;5114656;27;20027;-66
2022/04/13 04:56:03;;;;;;;73.63;37.22;;;;;;;;;;5122436;27;20030;-69
2022/04/13 04:58:29;;;;;;;37.08;17.50;;;;;;;;;;5114135;27;20039;-72
2022/04/13 05:00:54;;;;;;;55.45;27.65;;;;;;;;;;5109883;27;20038;-71
2022/04/13 05:03:19;;;;;;;84.72;42.75;;;;;;;;;;5109504;27;20031;-73
2022/04/13 05:05:45;;;;;;;63.50;33.42;;;;;;;;;;5110638;27;20124;-74
2022/04/13 05:08:10;;;;;;;56.08;30.77;;;;;;;;;;5121334;27;20031;-70
2022/04/13 05:10:35;;;;;;;41.28;22.10;;;;;;;;;;5121404;27;20459;-70
2022/04/13 05:13:02;;;;;;;20.48;12.95;;;;;;;;;;5121485;27;20038;-71
2022/04/13 05:15:28;;;;;;;13.48;8.07;;;;;;;;;;5109274;27;20027;-71
2022/04/13 05:17:53;;;;;;;17.13;9.82;;;;;;;;;;5110106;27;20075;-70
2022/04/13 05:20:18;;;;;;;44.90;24.85;;;;;;;;;;5120203;27;20076;-69
2022/04/13 05:22:43;;;;;;;46.08;23.63;;;;;;;;;;5114159;27;20034;-73
2022/04/13 05:25:10;;;;;;;38.90;20.77;;;;;;;;;;5118997;27;20365;-70
2022/04/13 05:27:35;;;;;;;26.80;15.10;;;;;;;;;;5121249;27;20154;-70
2022/04/13 05:30:01;;;;;;;36.92;20.92;;;;;;;;;;5119860;27;20559;-70
2022/04/13 05:32:26;;;;;;;52.65;28.00;;;;;;;;;;5120790;27;20451;-71
2022/04/13 05:35:01;;;;;;;60.42;34.97;;;;;;;;;;5120718;27;20015;-71
2022/04/13 05:37:27;;;;;;;64.28;38.65;;;;;;;;;;5120805;27;20027;-68
2022/04/13 05:39:52;;;;;;;56.30;36.83;;;;;;;;;;5102275;27;20438;-70
2022/04/13 05:42:21;;;;;;;83.53;46.17;;;;;;;;;;5102211;27;20034;-69
2022/04/13 05:44:47;;;;;;;93.72;49.97;;;;;;;;;;5101891;27;20441;-67
2022/04/13 05:47:12;;;;;;;95.85;52.40;;;;;;;;;;5120677;27;20042;-69
2022/04/13 05:49:37;;;;;;;104.35;55.67;;;;;;;;;;5121131;27;20027;-70
2022/04/13 05:52:03;;;;;;;94.05;53.20;;;;;;;;;;5101959;27;20513;-67
2022/04/13 05:54:28;;;;;;;82.78;43.55;;;;;;;;;;5120899;27;20027;-70
2022/04/13 05:56:53;;;;;;;73.57;42.60;;;;;;;;;;5120174;27;20803;-70
2022/04/13 05:59:19;;;;;;;62.55;37.35;;;;;;;;;;5120225;27;20039;-74
2022/04/13 06:01:44;;;;;;;64.82;38.00;;;;;;;;;;5120460;27;20027;-70
2022/04/13 06:04:11;;;;;;;53.88;35.60;;;;;;;;;;5111525;27;20031;-71
2022/04/13 06:06:36;;;;;;;50.28;29.50;;;;;;;;;;5106443;27;20031;-70
2022/04/13 06:09:01;;;;;;;40.10;24.60;;;;;;;;;;5106413;27;20047;-70
2022/04/13 06:11:26;;;;;;;30.65;18.85;;;;;;;;;;5108064;27;20019;-70
2022/04/13 06:13:52;;;;;;;26.00;17.38;;;;;;;;;;5113497;27;20023;-72
2022/04/13 06:16:17;;;;;;;29.88;18.73;;;;;;;;;;5118725;28;20084;-71
2022/04/13 06:18:42;;;;;;;36.00;20.65;;;;;;;;;;5120338;28;20385;-70
2022/04/13 06:21:09;;;;;;;32.30;19.13;;;;;;;;;;5119898;28;20031;-71
2022/04/13 06:23:35;;;;;;;40.20;22.35;;;;;;;;;;5119903;28;20042;-73
2022/04/13 06:26:00;;;;;;;35.90;19.55;;;;;;;;;;5120155;28;20050;-70
2022/04/13 06:28:25;;;;;;;35.35;18.58;;;;;;;;;;5123614;27;20079;-71
2022/04/13 06:30:50;;;;;;;34.55;22.10;;;;;;;;;;5124244;27;20019;-71
2022/04/13 06:33:16;;;;;;;26.33;18.52;;;;;;;;;;5122410;27;20011;-69
2022/04/13 06:35:41;;;;;;;24.75;15.85;;;;;;;;;;5111012;27;20034;-70
2022/04/13 06:38:06;;;;;;;27.48;15.90;;;;;;;;;;5111997;27;20080;-74
2022/04/13 06:40:32;;;;;;;23.10;14.18;;;;;;;;;;5111861;27;20114;-69
2022/04/13 06:42:57;;;;;;;25.23;14.90;;;;;;;;;;5111151;27;20056;-71
2022/04/13 06:45:22;;;;;;;24.05;13.45;;;;;;;;;;5110348;27;20031;-71
2022/04/13 06:47:48;;;;;;;22.92;14.95;;;;;;;;;;5111952;27;20027;-73
2022/04/13 06:50:13;;;;;;;21.08;12.98;;;;;;;;;;5111746;27;20054;-68
2022/04/13 06:52:39;;;;;;;15.07;9.55;;;;;;;;;;5122391;27;20030;-69
2022/04/13 06:55:05;;;;;;;16.10;8.63;;;;;;;;;;5122812;27;20035;-69
2022/04/13 06:57:33;;;;;;;15.52;8.75;;;;;;;;;;5114304;27;20054;-72
2022/04/13 06:59:58;;;;;;;15.50;10.63;;;;;;;;;;5121907;27;20035;-69
2022/04/13 07:02:26;;;;;;;24.23;17.92;;;;;;;;;;5121521;27;20031;-70
2022/04/13 07:04:53;;;;;;;16.45;11.80;;;;;;;;;;5114559;27;20947;-73
2022/04/13 07:07:19;;;;;;;17.70;10.82;;;;;;;;;;5111536;27;20058;-72
2022/04/13 07:09:44;;;;;;;15.82;10.00;;;;;;;;;;5114089;27;20069;-70
2022/04/13 07:12:09;;;;;;;16.98;10.05;;;;;;;;;;5116896;27;20422;-73
2022/04/13 07:14:34;;;;;;;18.40;11.10;;;;;;;;;;5120455;27;20103;-67
2022/04/13 07:17:00;;;;;;;24.83;14.13;;;;;;;;;;5120836;27;20106;-68
2022/04/13 07:19:25;;;;;;;47.15;27.48;;;;;;;;;;5124443;27;20367;-71
2022/04/13 07:21:50;;;;;;;39.80;26.55;;;;;;;;;;5128218;27;20015;-70
2022/04/13 07:24:16;;;;;;;27.67;16.83;;;;;;;;;;5128081;27;20446;-72
2022/04/13 07:26:41;;;;;;;25.70;16.88;;;;;;;;;;5119499;27;20026;-71
2022/04/13 07:29:06;;;;;;;34.28;15.75;;;;;;;;;;5110419;27;20034;-69
2022/04/13 07:31:32;;;;;;;28.00;16.70;;;;;;;;;;5110861;27;20132;-71
2022/04/13 07:33:57;;;;;;;20.92;12.98;;;;;;;;;;5110893;27;20023;-69
2022/04/13 07:36:22;;;;;;;14.82;9.93;;;;;;;;;;5109779;27;20030;-69
2022/04/13 07:38:50;;;;;;;15.60;9.15;;;;;;;;;;5110166;27;20299;-67
2022/04/13 07:41:15;;;;;;;13.00;8.82;;;;;;;;;;5110256;27;20098;-68
2022/04/13 07:43:40;;;;;;;11.07;7.60;;;;;;;;;;5110561;27;20114;-69
2022/04/13 07:46:06;;;;;;;15.40;9.73;;;;;;;;;;5111561;27;21021;-72
2022/04/13 07:48:31;;;;;;;13.43;7.47;;;;;;;;;;5110547;27;20114;-68
2022/04/13 07:50:56;;;;;;;10.38;7.20;;;;;;;;;;5116033;27;20391;-70
2022/04/13 07:53:22;;;;;;;11.25;7.07;;;;;;;;;;5112359;27;20099;-68
2022/04/13 07:55:47;;;;;;;7.97;5.82;;;;;;;;;;5117911;27;20019;-69
2022/04/13 07:58:13;;;;;;;7.68;6.03;;;;;;;;;;5124075;27;20046;-70
2022/04/13 08:00:38;;;;;;;9.35;6.45;;;;;;;;;;5126642;27;20042;-69
2022/04/13 08:03:04;;;;;;;10.98;7.03;;;;;;;;;;5123830;27;20038;-69
2022/04/13 08:05:29;;;;;;;14.43;9.65;;;;;;;;;;5123571;27;20035;-71
2022/04/13 08:07:54;;;;;;;26.17;14.57;;;;;;;;;;5120616;27;20437;-70
2022/04/13 08:10:20;;;;;;;14.13;9.73;;;;;;;;;;5112394;27;20063;-70
2022/04/13 08:12:46;;;;;;;11.50;7.47;;;;;;;;;;5122954;27;20027;-71
2022/04/13 08:15:12;;;;;;;13.50;7.60;;;;;;;;;;5120960;27;20026;-69
2022/04/13 08:17:39;;;;;;;12.90;7.93;;;;;;;;;;5119172;27;20023;-71
2022/04/13 08:20:04;;;;;;;19.50;7.75;;;;;;;;;;5111241;27;20103;-72
2022/04/13 08:22:30;;;;;;;14.15;8.75;;;;;;;;;;5114289;27;20018;-71
2022/04/13 08:24:55;;;;;;;13.30;9.52;;;;;;;;;;5121054;27;20030;-72
2022/04/13 08:27:20;;;;;;;10.88;6.90;;;;;;;;;;5114701;27;20046;-69
2022/04/13 08:29:49;;;;;;;14.25;8.70;;;;;;;;;;5117089;27;20437;-68
2022/04/13 08:32:18;;;;;;;11.57;7.68;;;;;;;;;;5110443;27;20461;-71
2022/04/13 08:34:43;;;;;;;8.97;7.70;;;;;;;;;;5120561;27;20550;-69
2022/04/13 08:37:10;;;;;;;14.13;11.15;;;;;;;;;;5117814;27;20019;-70
2022/04/13 08:39:35;;;;;;;10.27;6.47;;;;;;;;;;5109487;27;20023;-73
2022/04/13 08:42:14;;;;;;;16.90;10.57;;;;;;;;;;5110410;27;20088;-70
2022/04/13 08:44:50;;;;;;;16.33;8.77;;;;;;;;;;5110129;27;20046;-69
2022/04/13 08:47:17;;;;;;;10.13;6.57;;;;;;;;;;5108882;27;20503;-70
2022/04/13 08:49:49;;;;;;;12.38;7.15;;;;;;;;;;5109031;27;20502;-69
2022/04/13 08:52:15;;;;;;;16.40;8.07;;;;;;;;;;5108758;27;20096;-75
2022/04/13 08:54:56;;;;;;;9.88;6.15;;;;;;;;;;5108732;27;20031;-72
2022/04/13 08:57:23;;;;;;;8.10;4.60;;;;;;;;;;5107443;27;20429;-69
2022/04/13 08:59:57;;;;;;;13.23;7.75;;;;;;;;;;5107979;27;20434;-73
2022/04/13 09:02:39;;;;;;;14.77;9.93;;;;;;;;;;5091284;27;20034;-71
2022/04/13 09:05:10;;;;;;;10.18;6.60;;;;;;;;;;5109199;27;20074;-71
2022/04/13 09:07:35;;;;;;;10.18;6.60;;;;;;;;;;5108171;27;20087;-70
2022/04/13 09:10:03;;;;;;;9.88;6.60;;;;;;;;;;5109483;27;20387;-70
2022/04/13 09:12:30;;;;;;;10.38;6.28;;;;;;;;;;5118356;27;20031;-73
2022/04/13 09:15:00;;;;;;;5.65;5.10;;;;;;;;;;5116674;27;20030;-72
2022/04/13 09:17:28;;;;;;;7.68;4.82;;;;;;;;;;5114906;27;20047;-71
2022/04/13 09:19:54;;;;;;;6.28;4.00;;;;;;;;;;5109921;27;20022;-73
2022/04/13 09:22:19;;;;;;;5.95;4.85;;;;;;;;;;5110957;27;20418;-70
2022/04/13 09:24:45;;;;;;;4.63;3.78;;;;;;;;;;5119039;27;20055;-69
2022/04/13 09:27:11;;;;;;;6.75;3.70;;;;;;;;;;5120072;27;20122;-69
2022/04/13 09:29:37;;;;;;;7.50;3.88;;;;;;;;;;5110864;27;20274;-69
2022/04/13 09:32:02;;;;;;;4.32;3.58;;;;;;;;;;5107767;27;20369;-71
2022/04/13 09:34:27;;;;;;;3.72;3.17;;;;;;;;;;5111858;27;20027;-70
2022/04/13 09:36:55;;;;;;;4.85;4.10;;;;;;;;;;5115443;27;20054;-71
2022/04/13 09:39:21;;;;;;;6.30;4.57;;;;;;;;;;5111882;27;20483;-72
2022/04/13 09:41:46;;;;;;;8.05;4.65;;;;;;;;;;5082823;27;20038;-71
2022/04/13 09:44:15;;;;;;;4.63;3.40;;;;;;;;;;5118907;27;20019;-71
2022/04/13 09:46:41;;;;;;;4.72;3.80;;;;;;;;;;5126074;27;20023;-72
2022/04/13 09:49:07;;;;;;;5.18;3.42;;;;;;;;;;5126526;27;20353;-72
2022/04/13 09:51:39;;;;;;;4.78;3.15;;;;;;;;;;5120605;27;20023;-72
2022/04/13 09:54:06;;;;;;;6.13;3.38;;;;;;;;;;5118556;27;20134;-73
2022/04/13 09:56:31;;;;;;;6.38;5.60;;;;;;;;;;5119060;27;20030;-72
2022/04/13 09:58:57;;;;;;;9.23;6.00;;;;;;;;;;5121021;27;20399;-69
2022/04/13 10:01:22;;;;;;;7.07;3.75;;;;;;;;;;5120892;27;20113;-75
2022/04/13 10:03:55;;;;;;;7.07;5.80;;;;;;;;;;5120882;27;20031;-68
2022/04/13 10:06:29;;;;;;;7.03;4.57;;;;;;;;;;5119395;27;20349;-72
2022/04/13 10:08:59;;;;;;;14.77;10.98;;;;;;;;;;5120642;27;20030;-74
2022/04/13 10:11:24;;;;;;;10.50;7.97;;;;;;;;;;5121177;27;20033;-70
2022/04/13 10:13:50;;;;;;;8.57;6.63;;;;;;;;;;5121114;27;20023;-69
2022/04/13 10:16:15;;;;;;;13.50;9.15;;;;;;;;;;5121138;28;20381;-74
2022/04/13 10:18:53;;;;;;;5.10;4.30;;;;;;;;;;5120365;28;20422;-74
2022/04/13 10:21:54;;;;;;;4.65;4.10;;;;;;;;;;5114049;28;20062;-72
2022/04/13 10:24:29;;;;;;;6.22;4.13;;;;;;;;;;5012551;28;20092;-71
2022/04/13 10:26:54;;;;;;;4.07;3.53;;;;;;;;;;5096589;28;20411;-73
2022/04/13 10:29:19;;;;;;;4.80;3.75;;;;;;;;;;5108891;28;20035;-71
2022/04/13 10:32:04;;;;;;;4.80;3.97;;;;;;;;;;5107056;27;20025;-77
2022/04/13 10:34:31;;;;;;;5.97;4.63;;;;;;;;;;5106589;28;20031;-74
2022/04/13 10:36:56;;;;;;;5.97;3.75;;;;;;;;;;5107756;28;20073;-72
2022/04/13 10:39:22;;;;;;;6.35;3.65;;;;;;;;;;5108334;28;20050;-71
2022/04/13 10:41:48;;;;;;;6.85;4.40;;;;;;;;;;5112756;28;20038;-75
2022/04/13 10:44:14;;;;;;;6.03;4.50;;;;;;;;;;5109219;28;20023;-72
2022/04/13 10:46:40;;;;;;;7.93;5.95;;;;;;;;;;5106737;28;20019;-73
2022/04/13 10:49:08;;;;;;;9.18;5.30;;;;;;;;;;5108337;28;20186;-71
2022/04/13 10:51:34;;;;;;;5.28;4.18;;;;;;;;;;5106747;28;20096;-74
2022/04/13 10:54:01;;;;;;;4.47;3.78;;;;;;;;;;5107229;28;20046;-73
2022/04/13 10:56:27;;;;;;;5.75;4.65;;;;;;;;;;5117994;28;20023;-72
2022/04/13 10:59:11;;;;;;;5.78;4.57;;;;;;;;;;5105106;28;20043;-73
2022/04/13 11:01:42;;;;;;;6.28;3.88;;;;;;;;;;5088526;28;20036;-72
2022/04/13 11:04:09;;;;;;;6.15;3.92;;;;;;;;;;5108226;28;20127;-71
2022/04/13 11:06:35;;;;;;;5.47;4.32;;;;;;;;;;5108011;28;20282;-72
2022/04/13 11:09:02;;;;;;;5.22;3.80;;;;;;;;;;5118789;28;20357;-72
2022/04/13 11:11:29;;;;;;;5.68;3.95;;;;;;;;;;5119924;28;20075;-74
2022/04/13 11:13:54;;;;;;;10.90;6.70;;;;;;;;;;5121353;27;20110;-70
2022/04/13 11:16:21;;;;;;;6.10;4.97;;;;;;;;;;5120923;27;20110;-71
2022/04/13 11:19:01;;;;;;;11.07;7.72;;;;;;;;;;5119933;27;20019;-71
2022/04/13 11:21:29;;;;;;;7.15;5.85;;;;;;;;;;5122099;27;20175;-71
2022/04/13 11:23:54;;;;;;;6.35;3.42;;;;;;;;;;5124416;27;20030;-72
2022/04/13 11:26:27;;;;;;;4.20;3.05;;;;;;;;;;5123805;27;20027;-70
2022/04/13 11:29:12;;;;;;;3.83;3.20;;;;;;;;;;5121433;27;20030;-70
2022/04/13 11:31:56;;;;;;;5.20;3.58;;;;;;;;;;5122847;27;20984;-70
2022/04/13 11:34:41;;;;;;;4.55;3.10;;;;;;;;;;5119530;27;20043;-71
2022/04/13 11:37:10;;;;;;;4.45;2.53;;;;;;;;;;5122703;27;20029;-72
2022/04/13 11:39:59;;;;;;;5.03;3.30;;;;;;;;;;5121532;27;20023;-72
2022/04/13 11:42:34;;;;;;;6.72;3.45;;;;;;;;;;5123232;27;20513;-74
2022/04/13 11:44:59;;;;;;;2.92;2.63;;;;;;;;;;5123665;27;20019;-70
2022/04/13 11:47:35;;;;;;;12.65;2.78;;;;;;;;;;5123305;27;20026;-73
2022/04/13 11:50:01;;;;;;;6.18;3.60;;;;;;;;;;5122235;27;20035;-70
2022/04/13 11:52:46;;;;;;;4.00;3.03;;;;;;;;;;5123690;27;20034;-72
2022/04/13 11:55:21;;;;;;;5.97;3.67;;;;;;;;;;5122890;27;20023;-75
2022/04/13 11:58:06;;;;;;;73.95;51.95;;;;;;;;;;5123596;27;20125;-71
2022/04/13 12:00:52;;;;;;;37.33;11.63;;;;;;;;;;5122431;27;20646;-71
2022/04/13 12:03:20;;;;;;;11.02;8.32;;;;;;;;;;5125639;27;20024;-71
2022/04/13 12:05:47;;;;;;;5.82;4.43;;;;;;;;;;5127822;27;20034;-72
2022/04/13 12:08:13;;;;;;;61.53;30.38;;;;;;;;;;5126321;27;20019;-72
2022/04/13 12:10:43;;;;;;;31.67;17.17;;;;;;;;;;5125332;27;20019;-72
2022/04/13 12:13:09;;;;;;;9.25;5.45;;;;;;;;;;5123031;27;20154;-75
2022/04/13 12:15:44;;;;;;;3.25;2.72;;;;;;;;;;5122758;27;20433;-71
2022/04/13 12:18:12;;;;;;;2.80;2.42;;;;;;;;;;5123301;27;20460;-70
2022/04/13 12:20:38;;;;;;;8.65;4.43;;;;;;;;;;5122436;27;20039;-74
2022/04/13 12:23:15;;;;;;;7.82;4.90;;;;;;;;;;5122528;27;20031;-72
2022/04/13 12:25:41;;;;;;;3.65;2.72;;;;;;;;;;5121055;27;20058;-71
2022/04/13 12:28:07;;;;;;;4.13;2.45;;;;;;;;;;5121667;27;20031;-72
2022/04/13 12:30:32;;;;;;;2.97;2.58;;;;;;;;;;5122409;27;20019;-72
2022/04/13 12:32:57;;;;;;;4.32;2.72;;;;;;;;;;5122755;27;20031;-71
2022/04/13 12:35:23;;;;;;;4.53;2.88;;;;;;;;;;5122298;27;20028;-71
2022/04/13 12:37:52;;;;;;;7.13;3.80;;;;;;;;;;5122260;27;20019;-71
2022/04/13 12:40:18;;;;;;;5.03;3.70;;;;;;;;;;5121894;27;20034;-71
2022/04/13 12:42:43;;;;;;;3.88;3.17;;;;;;;;;;5122910;27;20437;-73
2022/04/13 12:45:11;;;;;;;5.13;3.10;;;;;;;;;;5123620;27;20030;-72
2022/04/13 12:47:44;;;;;;;5.07;3.05;;;;;;;;;;5122562;27;20596;-72
2022/04/13 12:50:09;;;;;;;4.63;3.28;;;;;;;;;;5122206;27;20438;-71
2022/04/13 12:52:35;;;;;;;4.35;2.90;;;;;;;;;;5122951;27;20020;-73
2022/04/13 12:55:01;;;;;;;4.35;3.22;;;;;;;;;;5122659;27;20031;-71
2022/04/13 12:57:26;;;;;;;3.42;2.75;;;;;;;;;;5123132;27;20039;-71
2022/04/13 12:59:52;;;;;;;7.20;3.97;;;;;;;;;;5103668;27;20027;-74
2022/04/13 13:02:20;;;;;;;3.67;2.92;;;;;;;;;;5122992;27;20023;-71
2022/04/13 13:04:48;;;;;;;4.78;3.55;;;;;;;;;;5122216;27;20035;-75
2022/04/13 13:07:13;;;;;;;4.97;2.97;;;;;;;;;;5122876;27;20029;-75
2022/04/13 13:09:39;;;;;;;5.43;3.50;;;;;;;;;;5120501;27;20360;-71
2022/04/13 13:12:25;;;;;;;3.80;2.90;;;;;;;;;;5121806;27;20034;-70
2022/04/13 13:14:53;;;;;;;6.47;4.10;;;;;;;;;;5122089;27;20062;-73
2022/04/13 13:17:18;;;;;;;5.13;4.00;;;;;;;;;;5120959;27;20129;-71
2022/04/13 13:19:49;;;;;;;4.20;3.50;;;;;;;;;;5121637;27;20118;-71
2022/04/13 13:22:24;;;;;;;4.30;3.30;;;;;;;;;;5122547;27;20333;-72
2022/04/13 13:24:49;;;;;;;6.40;4.40;;;;;;;;;;5102031;27;20403;-73
2022/04/13 13:27:22;;;;;;;4.90;3.50;;;;;;;;;;5121630;27;20102;-71
2022/04/13 13:29:51;;;;;;;5.15;4.18;;;;;;;;;;5121296;27;20425;-74
2022/04/13 13:32:17;;;;;;;5.95;3.45;;;;;;;;;;5120641;27;20061;-72
2022/04/13 13:34:56;;;;;;;5.05;3.67;;;;;;;;;;5112235;27;20026;-72
2022/04/13 13:37:32;;;;;;;5.93;4.05;;;;;;;;;;5107007;27;20034;-73
2022/04/13 13:39:58;;;;;;;4.05;2.78;;;;;;;;;;5109555;27;20095;-70
2022/04/13 13:42:23;;;;;;;5.05;3.25;;;;;;;;;;5114204;27;20122;-70
2022/04/13 13:44:49;;;;;;;4.45;3.03;;;;;;;;;;5117669;27;20254;-75
2022/04/13 13:47:14;;;;;;;3.63;3.00;;;;;;;;;;5121434;27;20175;-72
2022/04/13 13:49:39;;;;;;;5.93;3.50;;;;;;;;;;5110870;27;20023;-71
2022/04/13 13:52:06;;;;;;;5.80;4.00;;;;;;;;;;5108569;27;20023;-71
2022/04/13 13:54:35;;;;;;;5.05;3.65;;;;;;;;;;5108555;27;20457;-74
2022/04/13 13:57:01;;;;;;;6.75;6.07;;;;;;;;;;5110512;27;20037;-72
2022/04/13 13:59:26;;;;;;;20.42;18.30;;;;;;;;;;5111527;27;20023;-71
2022/04/13 14:01:51;;;;;;;7.70;5.50;;;;;;;;;;5111504;27;20038;-71
2022/04/13 14:04:17;;;;;;;5.47;4.03;;;;;;;;;;5117423;27;20023;-70
2022/04/13 14:06:42;;;;;;;5.28;4.20;;;;;;;;;;5108014;27;20065;-71
2022/04/13 14:09:08;;;;;;;5.55;3.40;;;;;;;;;;5089391;28;20114;-72
2022/04/13 14:11:34;;;;;;;29.05;25.75;;;;;;;;;;5116180;27;20031;-72
2022/04/13 14:13:59;;;;;;;19.75;15.52;;;;;;;;;;5119210;27;20026;-75
2022/04/13 14:16:25;;;;;;;6.25;4.28;;;;;;;;;;5112454;27;20031;-72
2022/04/13 14:18:50;;;;;;;118.68;48.10;;;;;;;;;;5107969;27;20393;-73
2022/04/13 14:21:15;;;;;;;452.05;182.90;;;;;;;;;;5108239;28;20402;-71
2022/04/13 14:23:40;;;;;;;297.52;117.53;;;;;;;;;;5106007;28;23359;-71
2022/04/13 14:26:06;;;;;;;106.63;46.80;;;;;;;;;;5108073;28;20054;-72
2022/04/13 14:28:31;;;;;;;208.15;107.50;;;;;;;;;;5106073;28;20094;-72